createdAt,value
2018-01-06T00:00:53.482Z,38.11
2018-01-06T00:01:53.670Z,38.18
2018-01-06T00:02:55.074Z,38.01
2018-01-06T00:03:53.513Z,38.02
2018-01-06T00:04:53.541Z,38.31
2018-01-06T00:05:55.314Z,37.93
2018-01-06T00:06:55.603Z,38.13
2018-01-06T00:07:55.247Z,38.63
2018-01-06T00:08:53.755Z,38.42
2018-01-06T00:09:53.480Z,38.62
2018-01-06T00:10:57.608Z,38.67
2018-01-06T00:11:53.657Z,38.62
2018-01-06T00:12:54.385Z,38.27
2018-01-06T00:14:03.414Z,38.91
2018-01-06T00:14:58.215Z,38.62
2018-01-06T00:15:55.836Z,38.58
2018-01-06T00:16:55.054Z,38.32
2018-01-06T00:17:53.914Z,38.92
2018-01-06T00:18:58.335Z,39.01
2018-01-06T00:19:59.867Z,38.73
2018-01-06T00:20:53.954Z,38.55
2018-01-06T00:21:53.821Z,38.84
2018-01-06T00:23:02.067Z,39.04
2018-01-06T00:23:54.532Z,38.85
2018-01-06T00:24:55.528Z,38.57
2018-01-06T00:25:53.487Z,38.24
2018-01-06T00:26:53.634Z,38.77
2018-01-06T00:27:53.928Z,38.88
2018-01-06T00:28:53.497Z,38.82
2018-01-06T00:29:54.439Z,38.92
2018-01-06T00:30:55.146Z,38.51
2018-01-06T00:31:54.015Z,38.63
2018-01-06T00:32:55.103Z,38.96
2018-01-06T00:33:54.065Z,39.02
2018-01-06T00:34:53.534Z,38.56
2018-01-06T00:35:53.660Z,38.41
2018-01-06T00:36:53.540Z,38.89
2018-01-06T00:37:53.680Z,38.81
2018-01-06T00:38:54.891Z,38.42
2018-01-06T00:39:53.929Z,38.86
2018-01-06T00:40:59.176Z,38.68
2018-01-06T00:41:54.215Z,38.91
2018-01-06T00:42:54.911Z,38.41
2018-01-06T00:43:54.436Z,38.79
2018-01-06T00:44:53.480Z,38.69
2018-01-06T00:45:53.902Z,38.87
2018-01-06T00:46:54.078Z,38.61
2018-01-06T00:47:53.577Z,38.63
2018-01-06T00:48:58.071Z,38.78
2018-01-06T00:49:53.501Z,39.41
2018-01-06T00:50:53.542Z,39.03
2018-01-06T00:51:53.542Z,39.46
2018-01-06T00:52:53.563Z,39.08
2018-01-06T00:53:53.728Z,38.97
2018-01-06T00:54:53.584Z,39.25
2018-01-06T00:55:57.202Z,39.29
2018-01-06T00:56:54.367Z,39.21
2018-01-06T00:57:53.846Z,39.13
2018-01-06T00:58:53.713Z,38.9
2018-01-06T00:59:54.412Z,39.2
2018-01-06T01:00:53.996Z,39.23
2018-01-06T01:01:54.352Z,39.33
2018-01-06T01:02:56.051Z,39.36
2018-01-06T01:03:54.713Z,39.44
2018-01-06T01:04:53.514Z,39.48
2018-01-06T01:05:53.754Z,39.44
2018-01-06T01:06:53.784Z,39.32
2018-01-06T01:07:53.685Z,39.02
2018-01-06T01:08:53.554Z,39.53
2018-01-06T01:09:54.510Z,38.88
2018-01-06T01:10:56.725Z,39.15
2018-01-06T01:11:53.882Z,39.22
2018-01-06T01:12:54.238Z,39.19
2018-01-06T01:13:53.753Z,39.39
2018-01-06T01:14:54.177Z,39.07
2018-01-06T01:15:54.235Z,39.48
2018-01-06T01:16:53.626Z,39.34
2018-01-06T01:17:54.265Z,39.49
2018-01-06T01:18:54.811Z,39.16
2018-01-06T01:19:54.298Z,39.32
2018-01-06T01:20:53.717Z,39.21
2018-01-06T01:21:53.621Z,39.48
2018-01-06T01:22:57.573Z,39.53
2018-01-06T01:23:53.547Z,39.32
2018-01-06T01:25:01.650Z,39.48
2018-01-06T01:25:53.527Z,39.26
2018-01-06T01:26:54.063Z,39.24
2018-01-06T01:27:53.588Z,39.27
2018-01-06T01:28:53.595Z,39.58
2018-01-06T01:29:54.927Z,39.44
2018-01-06T01:30:54.056Z,39.14
2018-01-06T01:31:53.541Z,39.63
2018-01-06T01:32:55.977Z,39.64
2018-01-06T01:33:53.555Z,39.79
2018-01-06T01:34:54.246Z,39.99
2018-01-06T01:36:02.098Z,39.59
2018-01-06T01:36:55.220Z,39.42
2018-01-06T01:37:55.053Z,39.59
2018-01-06T01:38:54.350Z,39.49
2018-01-06T01:39:54.168Z,39.83
2018-01-06T01:40:56.790Z,39.86
2018-01-06T01:41:54.222Z,39.48
2018-01-06T01:43:01.764Z,39.53
2018-01-06T01:43:56.043Z,39.7
2018-01-06T01:44:55.192Z,39.96
2018-01-06T01:45:53.560Z,39.43
2018-01-06T01:46:53.711Z,39.58
2018-01-06T01:47:53.921Z,39.8
2018-01-06T01:48:54.382Z,39.97
2018-01-06T01:49:53.818Z,39.96
2018-01-06T01:50:55.054Z,40.05
2018-01-06T01:51:53.765Z,39.69
2018-01-06T01:52:53.548Z,39.59
2018-01-06T01:53:55.653Z,39.73
2018-01-06T01:54:54.342Z,39.6
2018-01-06T01:55:53.670Z,39.73
2018-01-06T01:56:53.693Z,39.59
2018-01-06T01:57:53.660Z,39.64
2018-01-06T01:58:53.872Z,40.08
2018-01-06T02:00:00.504Z,40.22
2018-01-06T02:01:04.042Z,40.04
2018-01-06T02:01:54.371Z,40.39
2018-01-06T02:02:57.365Z,39.91
2018-01-06T02:03:53.633Z,40.12
2018-01-06T02:04:53.701Z,40.23
2018-01-06T02:05:59.404Z,40.22
2018-01-06T02:06:55.464Z,40.38
2018-01-06T02:07:54.783Z,40.4
2018-01-06T02:08:57.721Z,40.64
2018-01-06T02:09:54.445Z,40.57
2018-01-06T02:10:54.281Z,40.45
2018-01-06T02:11:53.590Z,40.12
2018-01-06T02:12:53.815Z,40.68
2018-01-06T02:13:56.625Z,40.46
2018-01-06T02:14:53.671Z,40.59
2018-01-06T02:15:53.576Z,40.58
2018-01-06T02:16:54.701Z,40.57
2018-01-06T02:17:53.726Z,40.5
2018-01-06T02:18:53.598Z,40.26
2018-01-06T02:20:53.811Z,40.35
2018-01-06T02:21:54.836Z,40.81
2018-01-06T02:23:59.977Z,40.33
2018-01-06T02:24:58.744Z,40.63
2018-01-06T02:25:53.647Z,40.82
2018-01-06T02:26:55.007Z,40.66
2018-01-06T02:27:54.087Z,41.19
2018-01-06T02:28:56.767Z,40.85
2018-01-06T02:29:55.021Z,41.05
2018-01-06T02:30:53.858Z,40.71
2018-01-06T02:31:54.942Z,40.88
2018-01-06T02:32:54.968Z,40.89
2018-01-06T02:33:55.487Z,41.12
2018-01-06T02:34:54.029Z,40.7
2018-01-06T02:35:56.769Z,40.88
2018-01-06T02:36:53.775Z,40.87
2018-01-06T02:37:53.642Z,40.79
2018-01-06T02:38:54.643Z,40.82
2018-01-06T02:39:53.580Z,41.24
2018-01-06T02:40:53.680Z,41.01
2018-01-06T02:41:53.638Z,41.19
2018-01-06T02:42:57.155Z,41.05
2018-01-06T02:43:54.803Z,41.53
2018-01-06T02:44:53.752Z,41.72
2018-01-06T02:45:54.450Z,41.56
2018-01-06T02:46:53.995Z,41.3
2018-01-06T02:47:53.730Z,41.6
2018-01-06T02:48:55.162Z,41.32
2018-01-06T02:49:56.131Z,41.89
2018-01-06T02:50:53.774Z,41.53
2018-01-06T02:51:54.142Z,41.68
2018-01-06T02:52:53.718Z,41.32
2018-01-06T02:53:54.115Z,41.5
2018-01-06T02:54:53.602Z,41.25
2018-01-06T02:55:53.756Z,41.36
2018-01-06T02:57:01.683Z,41.64
2018-01-06T02:58:02.233Z,41.61
2018-01-06T02:58:54.393Z,41.83
2018-01-06T02:59:53.882Z,41.38
2018-01-06T03:00:53.695Z,41.59
2018-01-06T03:01:56.499Z,41.3
2018-01-06T03:02:53.674Z,41.09
2018-01-06T03:03:53.909Z,41.9
2018-01-06T03:04:58.230Z,41.68
2018-01-06T03:05:53.660Z,41.52
2018-01-06T03:06:53.985Z,41.92
2018-01-06T03:07:53.623Z,41.84
2018-01-06T03:09:01.886Z,41.75
2018-01-06T03:09:53.796Z,41.56
2018-01-06T03:10:54.425Z,42.09
2018-01-06T03:11:53.645Z,41.49
2018-01-06T03:13:01.764Z,41.88
2018-01-06T03:14:03.624Z,41.63
2018-01-06T03:16:06.058Z,41.44
2018-01-06T03:16:55.703Z,41.81
2018-01-06T03:17:53.696Z,41.56
2018-01-06T03:18:58.698Z,42
2018-01-06T03:19:53.625Z,42.1
2018-01-06T03:20:53.699Z,42.26
2018-01-06T03:21:53.777Z,41.54
2018-01-06T03:22:53.678Z,41.75
2018-01-06T03:24:03.397Z,41.73
2018-01-06T03:24:53.777Z,41.58
2018-01-06T03:25:53.728Z,41.72
2018-01-06T03:26:53.874Z,41.85
2018-01-06T03:27:53.718Z,41.99
2018-01-06T03:28:56.321Z,41.29
2018-01-06T03:29:53.888Z,41.92
2018-01-06T03:31:57.505Z,41.65
2018-01-06T03:32:53.939Z,42.04
2018-01-06T03:33:53.904Z,42.08
2018-01-06T03:34:55.861Z,41.63
2018-01-06T03:35:53.621Z,41.83
2018-01-06T03:36:53.818Z,42.1
2018-01-06T03:37:53.739Z,41.91
2018-01-06T03:38:53.790Z,42.02
2018-01-06T03:39:56.839Z,42.07
2018-01-06T03:40:55.493Z,41.56
2018-01-06T03:41:53.782Z,42.22
2018-01-06T03:42:53.779Z,42.21
2018-01-06T03:43:53.936Z,42.08
2018-01-06T03:44:53.698Z,42.02
2018-01-06T03:45:56.765Z,41.75
2018-01-06T03:46:54.125Z,41.94
2018-01-06T03:47:58.129Z,41.88
2018-01-06T03:48:54.999Z,42.04
2018-01-06T03:49:54.547Z,42.05
2018-01-06T03:50:53.932Z,41.94
2018-01-06T03:52:03.102Z,41.66
2018-01-06T03:52:53.679Z,41.86
2018-01-06T03:53:54.486Z,41.89
2018-01-06T03:55:01.491Z,42.13
2018-01-06T03:55:55.096Z,41.7
2018-01-06T03:57:03.425Z,42.05
2018-01-06T03:57:54.206Z,41.56
2018-01-06T03:59:01.209Z,41.81
2018-01-06T04:00:04.828Z,41.69
2018-01-06T04:00:55.363Z,41.81
2018-01-06T04:03:05.049Z,41.98
2018-01-06T04:03:56.853Z,42.06
2018-01-06T04:04:56.243Z,41.64
2018-01-06T04:05:53.655Z,41.89
2018-01-06T04:06:53.850Z,41.73
2018-01-06T04:07:53.701Z,42.05
2018-01-06T04:08:53.773Z,41.93
2018-01-06T04:09:53.955Z,42.01
2018-01-06T04:10:53.741Z,42.03
2018-01-06T04:11:55.427Z,41.73
2018-01-06T04:12:54.324Z,41.85
2018-01-06T04:13:53.720Z,41.59
2018-01-06T04:14:54.857Z,42.02
2018-01-06T04:15:54.327Z,41.53
2018-01-06T04:16:53.900Z,42.08
2018-01-06T04:17:53.892Z,41.61
2018-01-06T04:18:55.418Z,41.86
2018-01-06T04:19:55.212Z,41.69
2018-01-06T04:20:53.716Z,41.75
2018-01-06T04:21:56.129Z,42.06
2018-01-06T04:22:53.637Z,41.67
2018-01-06T04:23:53.648Z,42.1
2018-01-06T04:24:53.917Z,42.29
2018-01-06T04:25:55.272Z,41.62
2018-01-06T04:26:56.194Z,42.03
2018-01-06T04:27:56.158Z,41.62
2018-01-06T04:28:54.607Z,41.56
2018-01-06T04:29:55.237Z,42
2018-01-06T04:30:53.899Z,42.06
2018-01-06T04:31:57.876Z,41.91
2018-01-06T04:32:56.771Z,42.02
2018-01-06T04:33:54.070Z,41.92
2018-01-06T04:34:55.155Z,42.04
2018-01-06T04:35:55.037Z,42.43
2018-01-06T04:36:53.935Z,42.13
2018-01-06T04:37:53.879Z,41.97
2018-01-06T04:38:53.893Z,42.01
2018-01-06T04:39:54.399Z,41.81
2018-01-06T04:40:54.082Z,41.52
2018-01-06T04:41:53.799Z,41.92
2018-01-06T04:42:57.382Z,41.9
2018-01-06T10:04:37.428Z,40.39
2018-01-06T10:05:38.273Z,40.68
2018-01-06T10:06:36.751Z,41.58
2018-01-06T10:07:41.604Z,41.4
2018-01-06T10:08:36.950Z,41.34
2018-01-06T10:09:36.702Z,40.78
2018-01-06T10:10:39.489Z,40.81
2018-01-06T10:11:36.531Z,41.07
2018-01-06T10:12:36.496Z,40.67
2018-01-06T10:13:36.492Z,40.47
2018-01-06T10:14:36.889Z,40.9
2018-01-06T10:15:37.111Z,40.6
2018-01-06T10:16:37.479Z,40.71
2018-01-06T10:17:36.532Z,41.07
2018-01-06T10:18:36.982Z,41.18
2018-01-06T10:19:36.543Z,40.76
2018-01-06T10:20:36.563Z,41.2
2018-01-06T10:21:36.781Z,41
2018-01-06T10:22:36.713Z,41.22
2018-01-06T10:23:36.533Z,40.73
2018-01-06T10:24:36.844Z,41.03
2018-01-06T10:25:36.550Z,41.41
2018-01-06T10:26:36.543Z,41.58
2018-01-06T10:27:38.066Z,41.39
2018-01-06T10:28:36.544Z,41.94
2018-01-06T10:29:36.574Z,41.83
2018-01-06T10:30:36.754Z,42.16
2018-01-06T10:31:36.560Z,41.89
2018-01-06T10:32:38.606Z,42.38
2018-01-06T10:33:36.514Z,42.15
2018-01-06T10:34:36.503Z,41.6
2018-01-06T10:35:37.519Z,42.75
2018-01-06T10:36:36.986Z,42.65
2018-01-06T10:37:36.774Z,42.68
2018-01-06T10:38:36.816Z,42.51
2018-01-06T10:39:36.909Z,42.14
2018-01-06T10:40:36.546Z,43.02
2018-01-06T10:41:36.628Z,43.2
2018-01-06T10:42:36.550Z,43.08
2018-01-06T10:43:36.493Z,43.07
2018-01-06T10:44:36.495Z,42.61
2018-01-06T10:45:36.510Z,42.48
2018-01-06T10:46:36.516Z,42.48
2018-01-06T10:47:36.521Z,42.42
2018-01-06T10:48:36.500Z,42.57
2018-01-06T10:49:36.497Z,42.25
2018-01-06T10:50:36.504Z,42.4
2018-01-06T10:51:36.523Z,42.4
2018-01-06T10:52:36.525Z,41.98
2018-01-06T10:53:36.556Z,42.22
2018-01-06T10:54:36.496Z,42.26
2018-01-06T10:55:36.769Z,42.57
2018-01-06T10:56:36.590Z,42.14
2018-01-06T10:57:37.489Z,42.38
2018-01-06T10:58:37.002Z,42.75
2018-01-06T10:59:36.810Z,42.52
2018-01-06T11:00:37.089Z,42.59
2018-01-06T11:01:36.582Z,42.69
2018-01-06T11:02:36.569Z,42.86
2018-01-06T11:03:36.740Z,42.48
2018-01-06T11:04:36.621Z,42.34
2018-01-06T11:05:38.450Z,42.73
2018-01-06T11:06:37.363Z,42.67
2018-01-06T11:07:36.610Z,42.5
2018-01-06T11:08:36.560Z,43.32
2018-01-06T11:09:36.687Z,43.51
2018-01-06T11:10:37.662Z,43.12
2018-01-06T11:11:38.883Z,43.44
2018-01-06T11:12:36.723Z,44.08
2018-01-06T11:13:36.653Z,44.24
2018-01-06T11:14:36.592Z,44.15
2018-01-06T11:15:36.802Z,44.09
2018-01-06T11:16:36.678Z,43.93
2018-01-06T11:17:36.577Z,43.66
2018-01-06T11:18:36.752Z,44.24
2018-01-06T11:19:36.666Z,43.83
2018-01-06T11:20:37.144Z,43.67
2018-01-06T11:21:38.615Z,43.55
2018-01-06T11:22:37.789Z,44.09
2018-01-06T11:23:38.446Z,44
2018-01-06T11:24:36.703Z,44.41
2018-01-06T11:25:36.559Z,43.72
2018-01-06T11:26:36.665Z,44.57
2018-01-06T11:27:36.695Z,43.89
2018-01-06T11:28:37.160Z,43.74
2018-01-06T11:29:36.647Z,43.97
2018-01-06T11:30:38.207Z,43.96
2018-01-06T11:31:37.150Z,44.42
2018-01-06T11:32:37.041Z,43.83
2018-01-06T11:33:37.009Z,43.71
2018-01-06T11:34:39.051Z,44.2
2018-01-06T11:35:36.595Z,43.98
2018-01-06T11:36:36.894Z,43.93
2018-01-06T11:37:37.076Z,43.68
2018-01-06T11:38:36.576Z,44.12
2018-01-06T11:39:36.786Z,43.53
2018-01-06T11:40:44.101Z,43.6
2018-01-06T11:41:39.984Z,43.61
2018-01-06T11:42:36.866Z,43.15
2018-01-06T11:43:36.816Z,43.19
2018-01-06T11:44:37.637Z,43.66
2018-01-06T11:45:52.122Z,43.33
2018-01-06T11:46:37.337Z,43.53
2018-01-06T11:47:41.798Z,43.26
2018-01-06T11:48:36.747Z,44.08
2018-01-06T11:49:36.688Z,43.9
2018-01-06T11:50:37.339Z,44.45
2018-01-06T11:51:55.569Z,44.35
2018-01-06T11:52:36.667Z,44.18
2018-01-06T11:53:36.628Z,44.69
2018-01-06T11:54:39.190Z,44.76
2018-01-06T11:55:37.493Z,44.3
2018-01-06T11:56:36.572Z,44.91
2018-01-06T11:57:38.100Z,44.83
2018-01-06T11:58:37.838Z,45.2
2018-01-06T11:59:39.816Z,45.14
2018-01-06T12:00:36.779Z,45.43
2018-01-06T12:01:36.620Z,44.84
2018-01-06T12:02:36.595Z,44.95
2018-01-06T12:03:36.850Z,45.21
2018-01-06T12:04:36.629Z,45.06
2018-01-06T12:05:38.527Z,45.71
2018-01-06T12:06:36.847Z,45.1
2018-01-06T12:07:36.681Z,45.58
2018-01-06T12:08:36.628Z,44.71
2018-01-06T12:09:37.586Z,45.56
2018-01-06T12:10:36.711Z,46.09
2018-01-06T12:11:37.854Z,45.46
2018-01-06T12:12:36.773Z,44.57
2018-01-06T12:13:36.622Z,45.46
2018-01-06T12:14:36.758Z,45.69
2018-01-06T12:15:41.141Z,44.99
2018-01-06T12:16:36.647Z,45.43
2018-01-06T12:17:36.740Z,45.46
2018-01-06T12:18:37.124Z,44.68
2018-01-06T12:19:36.709Z,46.52
2018-01-06T12:20:36.604Z,45.52
2018-01-06T12:21:37.242Z,46.36
2018-01-06T12:22:39.225Z,46.2
2018-01-06T12:23:37.493Z,46.15
2018-01-06T12:24:37.067Z,45.88
2018-01-06T12:25:36.643Z,46.36
2018-01-06T12:26:36.633Z,45.64
2018-01-06T12:27:36.667Z,45.65
2018-01-06T12:28:36.754Z,45.63
2018-01-06T12:29:37.005Z,45.43
2018-01-06T12:30:36.684Z,45
2018-01-06T12:31:36.754Z,45.41
2018-01-06T12:32:36.742Z,45.17
2018-01-06T12:33:37.188Z,45.29
2018-01-06T12:34:36.725Z,45.21
2018-01-06T12:35:36.705Z,45.28
2018-01-06T12:36:36.745Z,45.21
2018-01-06T12:37:37.347Z,45.33
2018-01-06T12:38:36.712Z,45.27
2018-01-06T12:39:36.976Z,45.09
2018-01-06T12:40:36.708Z,44.97
2018-01-06T12:41:37.757Z,45.03
2018-01-06T12:42:37.066Z,45.3
2018-01-06T12:43:38.075Z,45.55
2018-01-06T12:44:36.627Z,45.28
2018-01-06T12:45:37.214Z,45.48
2018-01-06T12:46:36.707Z,45.59
2018-01-06T12:47:36.677Z,45.8
2018-01-06T12:48:41.396Z,45.69
2018-01-06T12:49:36.708Z,45.91
2018-01-06T12:50:36.657Z,45.29
2018-01-06T12:51:37.047Z,45.88
2018-01-06T12:52:36.743Z,45.97
2018-01-06T12:53:36.608Z,45.54
2018-01-06T12:54:37.207Z,46.24
2018-01-06T12:55:36.638Z,46.59
2018-01-06T12:56:36.673Z,46.44
2018-01-06T12:57:37.238Z,46.08
2018-01-06T12:58:36.743Z,46.96
2018-01-06T12:59:36.976Z,47.32
2018-01-06T13:00:37.120Z,47.42
2018-01-06T13:01:36.634Z,47.81
2018-01-06T13:02:36.770Z,48.64
2018-01-06T13:03:36.761Z,48.22
2018-01-06T13:04:36.640Z,48.75
2018-01-06T13:05:37.076Z,49.03
2018-01-06T13:06:38.641Z,49.31
2018-01-06T13:07:36.665Z,48.76
2018-01-06T13:08:36.649Z,48.87
2018-01-06T13:09:37.531Z,46.91
2018-01-06T13:10:36.701Z,48.33
2018-01-06T13:11:36.692Z,49.39
2018-01-06T13:12:36.822Z,48.64
2018-01-06T13:13:36.661Z,48.49
2018-01-06T13:14:36.701Z,48.83
2018-01-06T13:15:36.884Z,47.6
2018-01-06T13:16:37.577Z,47.44
2018-01-06T13:17:36.748Z,47.25
2018-01-06T13:18:37.092Z,47.24
2018-01-06T13:19:36.662Z,47.34
2018-01-06T13:20:40.473Z,46.75
2018-01-06T13:21:36.982Z,46.82
2018-01-06T13:22:36.705Z,46.86
2018-01-06T13:23:38.369Z,46.76
2018-01-06T13:24:37.333Z,46.55
2018-01-06T13:25:36.643Z,46.83
2018-01-06T13:26:41.681Z,46.49
2018-01-06T13:27:44.281Z,46.49
2018-01-06T13:28:38.606Z,46.64
2018-01-06T13:29:36.714Z,46.31
2018-01-06T13:30:37.735Z,46.75
2018-01-06T13:31:47.616Z,46.71
2018-01-06T13:32:37.629Z,46.05
2018-01-06T13:33:37.284Z,45.96
2018-01-06T13:34:42.429Z,45.97
2018-01-06T13:35:36.784Z,45.96
2018-01-06T13:36:36.757Z,46.45
2018-01-06T13:37:40.536Z,46.19
2018-01-06T13:38:37.316Z,45.53
2018-01-06T13:39:36.751Z,45.43
2018-01-06T13:40:37.010Z,45.97
2018-01-06T13:41:37.336Z,45.49
2018-01-06T13:42:37.266Z,45.34
2018-01-06T13:43:36.906Z,45.32
2018-01-06T13:44:40.841Z,45.15
2018-01-06T13:45:37.407Z,45.19
2018-01-06T13:46:37.666Z,45.64
2018-01-06T13:47:40.815Z,45.54
2018-01-06T13:48:37.100Z,45.1
2018-01-06T13:49:36.688Z,45.33
2018-01-06T13:50:38.520Z,45.01
2018-01-06T13:51:36.753Z,45.45
2018-01-06T13:52:40.088Z,45.04
2018-01-06T13:53:45.048Z,44.96
2018-01-06T13:54:36.826Z,44.95
2018-01-06T13:55:36.700Z,45.49
2018-01-06T13:56:36.768Z,45.64
2018-01-06T13:57:42.389Z,46.36
2018-01-06T13:58:37.118Z,46.44
2018-01-06T13:59:41.399Z,46.57
2018-01-06T14:00:37.004Z,47.5
2018-01-06T14:01:36.768Z,46.52
2018-01-06T14:02:36.710Z,46.8
2018-01-06T14:03:42.498Z,46.81
2018-01-06T14:04:37.560Z,46.27
2018-01-06T14:05:36.819Z,46.29
2018-01-06T14:06:42.366Z,46.31
2018-01-06T14:07:41.530Z,46.95
2018-01-06T14:08:36.831Z,46.42
2018-01-06T14:09:37.745Z,46.78
2018-01-06T14:10:36.711Z,46.6
2018-01-06T14:11:36.920Z,46.69
2018-01-06T14:12:37.157Z,46.62
2018-01-06T14:13:36.735Z,46.61
2018-01-06T14:14:36.713Z,46.22
2018-01-06T14:15:45.892Z,46.22
2018-01-06T14:16:36.744Z,46.5
2018-01-06T14:17:40.559Z,46.63
2018-01-06T14:18:37.248Z,46.09
2018-01-06T14:19:37.073Z,46.36
2018-01-06T14:20:36.752Z,45.99
2018-01-06T14:21:36.716Z,45.72
2018-01-06T14:22:37.083Z,45.8
2018-01-06T14:23:36.864Z,45.94
2018-01-06T14:24:36.743Z,45.81
2018-01-06T14:25:36.704Z,45.72
2018-01-06T14:26:36.794Z,45.47
2018-01-06T14:27:37.033Z,45.69
2018-01-06T14:28:36.763Z,45.54
2018-01-06T14:29:41.584Z,45.42
2018-01-06T14:30:37.153Z,45.39
2018-01-06T14:31:36.942Z,45.75
2018-01-06T14:32:36.922Z,45.42
2018-01-06T14:33:38.674Z,45.29
2018-01-06T14:34:36.704Z,45.73
2018-01-06T14:35:36.691Z,45.5
2018-01-06T14:36:40.593Z,44.99
2018-01-06T14:37:36.905Z,45.03
2018-01-06T14:38:36.813Z,45.98
2018-01-06T14:39:36.766Z,45.05
2018-01-06T14:40:36.846Z,45.72
2018-01-06T14:41:37.043Z,45.8
2018-01-06T14:42:36.858Z,45.73
2018-01-06T14:43:36.917Z,45.21
2018-01-06T14:44:37.109Z,45.45
2018-01-06T14:45:40.247Z,45.86
2018-01-06T14:46:38.102Z,45.5
2018-01-06T14:47:36.874Z,45.91
2018-01-06T14:48:37.779Z,45.42
2018-01-06T14:49:37.012Z,45.51
2018-01-06T14:50:37.148Z,45.47
2018-01-06T14:51:37.237Z,45.31
2018-01-06T14:52:37.317Z,44.81
2018-01-06T14:53:36.717Z,45.08
2018-01-06T14:54:36.886Z,44.84
2018-01-06T14:55:37.482Z,45.3
2018-01-06T14:56:36.738Z,45.29
2018-01-06T14:57:36.788Z,44.87
2018-01-06T14:58:38.171Z,44.71
2018-01-06T14:59:36.824Z,44.84
2018-01-06T15:00:37.348Z,45.22
2018-01-06T15:01:36.797Z,44.94
2018-01-06T15:02:36.791Z,44.97
2018-01-06T15:03:37.079Z,44.98
2018-01-06T15:04:36.741Z,45.07
2018-01-06T15:05:36.751Z,44.97
2018-01-06T15:06:38.821Z,45.09
2018-01-06T15:07:36.960Z,45.34
2018-01-06T15:08:36.793Z,44.73
2018-01-06T15:09:36.996Z,45.15
2018-01-06T15:10:36.752Z,45.16
2018-01-06T15:11:36.727Z,45.12
2018-01-06T15:12:37.034Z,45.39
2018-01-06T15:13:37.380Z,44.75
2018-01-06T15:14:36.772Z,45.25
2018-01-06T15:15:37.047Z,44.79
2018-01-06T15:16:37.469Z,44.64
2018-01-06T15:17:36.883Z,44.95
2018-01-06T15:18:36.852Z,44.57
2018-01-06T15:19:39.735Z,44.97
2018-01-06T15:20:38.845Z,44.53
2018-01-06T15:21:38.613Z,44.73
2018-01-06T15:22:36.749Z,44.99
2018-01-06T15:23:36.814Z,44.67
2018-01-06T15:24:36.959Z,44.9
2018-01-06T15:25:36.723Z,45.08
2018-01-06T15:26:36.743Z,44.58
2018-01-06T15:27:38.940Z,44.9
2018-01-06T15:28:36.833Z,44.54
2018-01-06T15:29:36.844Z,44.51
2018-01-06T15:30:37.734Z,45.03
2018-01-06T15:31:36.833Z,44.7
2018-01-06T15:32:36.855Z,44.91
2018-01-06T15:33:36.885Z,44.65
2018-01-06T15:34:36.871Z,44.95
2018-01-06T15:35:36.942Z,44.79
2018-01-06T15:36:36.992Z,45
2018-01-06T15:37:36.835Z,44.98
2018-01-06T15:38:36.807Z,44.84
2018-01-06T15:39:36.826Z,45.4
2018-01-06T15:40:36.871Z,45.1
2018-01-06T15:41:37.616Z,44.49
2018-01-06T15:42:37.115Z,44.98
2018-01-06T15:43:37.396Z,45.23
2018-01-06T15:44:37.386Z,45.93
2018-01-06T15:45:37.544Z,44.96
2018-01-06T15:46:36.752Z,44.46
2018-01-06T15:47:37.066Z,44.67
2018-01-06T15:48:36.907Z,44.48
2018-01-06T15:49:36.778Z,44.84
2018-01-06T15:50:36.969Z,44.72
2018-01-06T15:51:36.815Z,44.38
2018-01-06T15:52:40.197Z,44.89
2018-01-06T15:53:36.797Z,44.87
2018-01-06T15:54:36.949Z,44.56
2018-01-06T15:55:37.447Z,44.67
2018-01-06T15:56:36.812Z,44.69
2018-01-06T15:57:36.757Z,44.9
2018-01-06T15:58:36.818Z,45.05
2018-01-06T15:59:37.052Z,44.85
2018-01-06T16:00:36.938Z,44.9
2018-01-06T16:01:37.100Z,44.77
2018-01-06T16:02:38.037Z,44.65
2018-01-06T16:03:37.240Z,44.55
2018-01-06T16:04:36.973Z,44.43
2018-01-06T16:05:36.760Z,44.78
2018-01-06T16:06:36.820Z,44.55
2018-01-06T16:07:36.930Z,44.77
2018-01-06T16:08:37.830Z,44.9
2018-01-06T16:09:37.150Z,44.65
2018-01-06T16:10:37.671Z,44.94
2018-01-06T16:11:36.848Z,44.92
2018-01-06T16:12:36.824Z,44.66
2018-01-06T16:13:37.403Z,44.79
2018-01-06T16:14:38.446Z,45.19
2018-01-06T16:15:36.788Z,44.82
2018-01-06T16:16:37.327Z,44.63
2018-01-06T16:17:36.842Z,44.51
2018-01-06T16:18:36.963Z,44.64
2018-01-06T16:19:36.811Z,45.09
2018-01-06T16:20:39.523Z,45.06
2018-01-06T16:21:36.832Z,44.32
2018-01-06T16:22:36.832Z,44.4
2018-01-06T16:23:36.785Z,44.61
2018-01-06T16:24:36.802Z,44.31
2018-01-06T16:25:42.593Z,44.49
2018-01-06T16:26:36.977Z,45.13
2018-01-06T16:27:38.300Z,44.8
2018-01-06T16:28:36.870Z,44.84
2018-01-06T16:29:37.134Z,44.42
2018-01-06T16:30:36.913Z,44.79
2018-01-06T16:31:36.934Z,44.62
2018-01-06T16:32:36.944Z,44.39
2018-01-06T16:33:37.102Z,44.99
2018-01-06T16:34:36.875Z,44.99
2018-01-06T16:35:36.934Z,44.42
2018-01-06T16:36:36.974Z,44.56
2018-01-06T16:37:37.608Z,44.55
2018-01-06T16:38:37.016Z,44.9
2018-01-06T16:39:37.956Z,45.18
2018-01-06T16:40:37.116Z,45.21
2018-01-06T16:41:36.985Z,45.17
2018-01-06T16:42:36.822Z,45.3
2018-01-06T16:43:37.126Z,44.96
2018-01-06T16:44:37.155Z,45.33
2018-01-06T16:45:40.216Z,45.03
2018-01-06T16:46:36.986Z,45.34
2018-01-06T16:47:38.198Z,44.99
2018-01-06T16:48:36.887Z,45.15
2018-01-06T16:49:40.185Z,45.38
2018-01-06T16:50:36.907Z,45.19
2018-01-06T16:51:37.188Z,45.53
2018-01-06T16:52:37.161Z,45.36
2018-01-06T16:53:36.944Z,45.48
2018-01-06T16:54:36.918Z,45.03
2018-01-06T16:55:36.842Z,45.21
2018-01-06T16:56:36.956Z,44.95
2018-01-06T16:57:37.678Z,45.26
2018-01-06T16:58:36.856Z,45.73
2018-01-06T16:59:36.901Z,45.53
2018-01-06T17:00:36.834Z,45.13
2018-01-06T17:01:36.921Z,45.48
2018-01-06T17:02:36.849Z,45.39
2018-01-06T17:03:36.839Z,45.38
2018-01-06T17:04:37.001Z,45.41
2018-01-06T17:05:36.840Z,45.65
2018-01-06T17:06:36.867Z,45.64
2018-01-06T17:07:38.103Z,45.54
2018-01-06T17:08:37.031Z,45.42
2018-01-06T17:09:36.983Z,44.94
2018-01-06T17:10:36.880Z,44.42
2018-01-06T17:11:37.467Z,44.34
2018-01-06T17:12:36.873Z,44.34
2018-01-06T17:13:38.354Z,43.93
2018-01-06T17:14:37.333Z,43.91
2018-01-06T17:15:37.352Z,43.21
2018-01-06T17:16:39.202Z,44.36
2018-01-06T17:17:37.932Z,45.2
2018-01-06T17:18:36.992Z,45.17
2018-01-06T17:19:36.907Z,44.23
2018-01-06T17:20:37.533Z,44.48
2018-01-06T17:21:37.412Z,44.43
2018-01-06T17:23:47.036Z,45.31
2018-01-06T17:24:46.982Z,45.35
2018-01-06T17:25:46.991Z,46.14
2018-01-06T17:26:47.015Z,45.3
2018-01-06T17:27:47.109Z,45.39
2018-01-06T17:28:47.024Z,45.22
2018-01-06T17:29:46.985Z,45.46
2018-01-06T17:30:46.982Z,45.39
2018-01-06T17:31:46.978Z,45.29
2018-01-06T17:32:46.975Z,45.23
2018-01-06T17:33:47.883Z,44.96
2018-01-06T17:34:46.977Z,45.31
2018-01-06T17:35:46.982Z,45.38
2018-01-06T17:36:46.983Z,45.34
2018-01-06T17:37:47.014Z,44.89
2018-01-06T17:38:46.986Z,45.17
2018-01-06T17:39:46.977Z,45.17
2018-01-06T17:40:46.978Z,44.76
2018-01-06T17:41:46.991Z,45.12
2018-01-06T17:42:46.980Z,44.87
2018-01-06T17:43:47.040Z,45.02
2018-01-06T17:44:46.984Z,45.07
2018-01-06T17:45:46.984Z,45.5
2018-01-06T17:46:46.983Z,45.28
2018-01-06T17:47:46.985Z,44.96
2018-01-06T17:48:47.012Z,45.54
2018-01-06T17:49:46.996Z,45.08
2018-01-06T17:50:46.989Z,45.44
2018-01-06T17:51:47.012Z,45.55
2018-01-06T17:52:46.990Z,45.23
2018-01-06T17:53:47.015Z,45.48
2018-01-06T17:54:47.017Z,45.52
2018-01-06T17:55:47.012Z,45.79
2018-01-06T17:56:47.791Z,45.32
2018-01-06T17:57:46.998Z,45.42
2018-01-06T17:58:47.017Z,45.52
2018-01-06T17:59:46.989Z,45.75
2018-01-06T18:00:47.133Z,45.31
2018-01-06T18:01:47.009Z,45.86
2018-01-06T18:02:46.999Z,45.74
2018-01-06T18:03:47.025Z,45.74
2018-01-06T18:04:46.996Z,46.1
2018-01-06T18:05:46.996Z,46.58
2018-01-06T18:06:47.002Z,45.84
2018-01-06T18:07:47.006Z,45.41
2018-01-06T18:08:47.025Z,45.8
2018-01-06T18:09:47.005Z,45.69
2018-01-06T18:10:47.329Z,45.4
2018-01-06T18:11:47.000Z,45.33
2018-01-06T18:12:47.008Z,45.49
2018-01-06T18:13:47.031Z,45.49
2018-01-06T18:14:47.025Z,45.24
2018-01-06T18:15:47.012Z,46.24
2018-01-06T18:16:47.005Z,45.27
2018-01-06T18:17:47.010Z,45.93
2018-01-06T18:18:47.040Z,45.82
2018-01-06T18:19:47.035Z,45.65
2018-01-06T18:20:47.014Z,45.65
2018-01-06T18:21:47.024Z,45.59
2018-01-06T18:22:47.020Z,45.6